KCON/CON METAR and TAF weather

Enter ICAO airport designator
Station Type Date Time Source
KCON METAR 2021/09/28 04:51 UTC NOAA

KCON 280451Z AUTO 00000KT 10SM CLR 13/13 A2979 RMK AO2 SLP087 T01330128 402000067


Station Type Date Time Source
KCON Decoded METAR 2021/09/28 04:51 UTC NOAA

Concord, Concord Municipal Airport, NH, United States (KCON) 43-11-43N 071-30-04W 103M
Sep 28, 2021 - 12:51 AM EDT / 2021.09.28 0451 UTC
Wind: Calm:0
Visibility: 10 mile(s):0
Sky conditions: clear
Temperature: 55.9 F (13.3 C)
Dew Point: 55.0 F (12.8 C)
Relative Humidity: 96%
Pressure (altimeter): 29.79 in. Hg (1008 hPa)
ob: KCON 280451Z AUTO 00000KT 10SM CLR 13/13 A2979 RMK AO2 SLP087 T01330128 402000067
cycle: 5

Station Type Date Time Source
KCON TAF 2021/09/27 18:45 UTC NOAA

TAF KCON 271742Z 2718/2818 22007KT P6SM BKN070
FM272300 21004KT P6SM BKN070
FM281400 32006KT P6SM SCT025 BKN050

Example: see airport list